sensor_id;sensor_type;location;lat;lon;timestamp;temperature;humidity
8248;DHT22;4164;49.844;8.830;2022-11-20T00:00:09;3.10;99.90
8248;DHT22;4164;49.844;8.830;2022-11-20T00:02:34;3.10;99.90
8248;DHT22;4164;49.844;8.830;2022-11-20T00:05:00;3.10;99.90
8248;DHT22;4164;49.844;8.830;2022-11-20T00:07:25;3.10;99.90
8248;DHT22;4164;49.844;8.830;2022-11-20T00:09:51;3.10;99.90
8248;DHT22;4164;49.844;8.830;2022-11-20T00:12:16;3.00;99.90
8248;DHT22;4164;49.844;8.830;2022-11-20T00:14:42;3.10;99.90
8248;DHT22;4164;49.844;8.830;2022-11-20T00:17:07;3.10;99.90
8248;DHT22;4164;49.844;8.830;2022-11-20T00:19:33;3.20;99.90
8248;DHT22;4164;49.844;8.830;2022-11-20T00:21:58;3.20;99.90
8248;DHT22;4164;49.844;8.830;2022-11-20T00:24:24;3.10;99.90
8248;DHT22;4164;49.844;8.830;2022-11-20T00:26:50;3.00;99.90
8248;DHT22;4164;49.844;8.830;2022-11-20T00:29:15;2.90;99.90
8248;DHT22;4164;49.844;8.830;2022-11-20T00:31:41;3.10;99.90
8248;DHT22;4164;49.844;8.830;2022-11-20T00:34:06;3.10;99.90
8248;DHT22;4164;49.844;8.830;2022-11-20T00:36:33;3.10;99.90
8248;DHT22;4164;49.844;8.830;2022-11-20T00:38:59;3.10;99.90
8248;DHT22;4164;49.844;8.830;2022-11-20T00:41:26;3.00;99.90
8248;DHT22;4164;49.844;8.830;2022-11-20T00:43:53;3.20;99.90
8248;DHT22;4164;49.844;8.830;2022-11-20T00:46:21;3.30;99.90
8248;DHT22;4164;49.844;8.830;2022-11-20T00:48:47;3.40;99.90
8248;DHT22;4164;49.844;8.830;2022-11-20T00:51:16;3.50;99.90
8248;DHT22;4164;49.844;8.830;2022-11-20T00:53:43;3.30;99.90
8248;DHT22;4164;49.844;8.830;2022-11-20T00:56:14;3.40;99.90
8248;DHT22;4164;49.844;8.830;2022-11-20T00:58:41;3.50;99.90
8248;DHT22;4164;49.844;8.830;2022-11-20T01:01:16;3.40;99.90
8248;DHT22;4164;49.844;8.830;2022-11-20T01:03:45;3.40;99.90
8248;DHT22;4164;49.844;8.830;2022-11-20T01:06:32;3.30;99.90
8248;DHT22;4164;49.844;8.830;2022-11-20T01:09:00;3.30;99.90
8248;DHT22;4164;49.844;8.830;2022-11-20T01:11:28;3.30;99.90
8248;DHT22;4164;49.844;8.830;2022-11-20T01:13:56;3.30;99.90
8248;DHT22;4164;49.844;8.830;2022-11-20T01:16:27;3.30;99.90
8248;DHT22;4164;49.844;8.830;2022-11-20T01:18:55;3.30;99.90
8248;DHT22;4164;49.844;8.830;2022-11-20T01:21:24;3.50;99.90
8248;DHT22;4164;49.844;8.830;2022-11-20T01:23:50;3.30;99.90
8248;DHT22;4164;49.844;8.830;2022-11-20T01:26:18;3.30;99.90
8248;DHT22;4164;49.844;8.830;2022-11-20T01:28:44;3.30;99.90
8248;DHT22;4164;49.844;8.830;2022-11-20T01:31:19;3.30;99.90
8248;DHT22;4164;49.844;8.830;2022-11-20T01:33:46;3.50;99.90
8248;DHT22;4164;49.844;8.830;2022-11-20T01:36:13;3.60;99.90
8248;DHT22;4164;49.844;8.830;2022-11-20T01:38:39;3.50;99.90
8248;DHT22;4164;49.844;8.830;2022-11-20T01:41:06;3.40;99.90
8248;DHT22;4164;49.844;8.830;2022-11-20T01:43:32;3.70;99.90
8248;DHT22;4164;49.844;8.830;2022-11-20T01:51:02;3.60;99.90
8248;DHT22;4164;49.844;8.830;2022-11-20T01:53:33;3.70;99.90
8248;DHT22;4164;49.844;8.830;2022-11-20T01:56:01;3.70;99.90
8248;DHT22;4164;49.844;8.830;2022-11-20T01:58:32;3.70;99.90
8248;DHT22;4164;49.844;8.830;2022-11-20T02:00:58;3.60;99.90
8248;DHT22;4164;49.844;8.830;2022-11-20T02:03:24;3.50;99.90
8248;DHT22;4164;49.844;8.830;2022-11-20T02:06:00;3.70;99.90
8248;DHT22;4164;49.844;8.830;2022-11-20T02:08:28;3.70;99.90
8248;DHT22;4164;49.844;8.830;2022-11-20T02:10:54;3.90;99.90
8248;DHT22;4164;49.844;8.830;2022-11-20T02:13:19;3.70;99.90
8248;DHT22;4164;49.844;8.830;2022-11-20T02:16:03;3.70;99.90
8248;DHT22;4164;49.844;8.830;2022-11-20T02:18:30;3.60;99.90
8248;DHT22;4164;49.844;8.830;2022-11-20T02:21:07;3.50;99.90
8248;DHT22;4164;49.844;8.830;2022-11-20T02:23:56;3.40;99.90
8248;DHT22;4164;49.844;8.830;2022-11-20T02:26:23;3.30;99.90
8248;DHT22;4164;49.844;8.830;2022-11-20T02:28:49;3.40;99.90
8248;DHT22;4164;49.844;8.830;2022-11-20T02:31:15;3.50;99.90
8248;DHT22;4164;49.844;8.830;2022-11-20T02:33:41;3.40;99.90
8248;DHT22;4164;49.844;8.830;2022-11-20T02:36:09;3.40;99.90
8248;DHT22;4164;49.844;8.830;2022-11-20T02:38:36;3.40;99.90
8248;DHT22;4164;49.844;8.830;2022-11-20T02:41:01;3.40;99.90
8248;DHT22;4164;49.844;8.830;2022-11-20T02:43:27;3.40;99.90
8248;DHT22;4164;49.844;8.830;2022-11-20T02:45:52;3.40;99.90
8248;DHT22;4164;49.844;8.830;2022-11-20T02:48:21;3.50;99.90
8248;DHT22;4164;49.844;8.830;2022-11-20T02:50:46;3.60;99.90
8248;DHT22;4164;49.844;8.830;2022-11-20T02:53:12;3.60;99.90
8248;DHT22;4164;49.844;8.830;2022-11-20T02:55:38;3.50;99.90
8248;DHT22;4164;49.844;8.830;2022-11-20T02:58:03;3.40;99.90
8248;DHT22;4164;49.844;8.830;2022-11-20T03:00:29;3.50;99.90
8248;DHT22;4164;49.844;8.830;2022-11-20T03:02:54;3.50;99.90
8248;DHT22;4164;49.844;8.830;2022-11-20T03:05:20;3.40;99.90
8248;DHT22;4164;49.844;8.830;2022-11-20T03:07:45;3.40;99.90
8248;DHT22;4164;49.844;8.830;2022-11-20T03:10:11;3.60;99.90
8248;DHT22;4164;49.844;8.830;2022-11-20T03:12:36;3.60;99.90
8248;DHT22;4164;49.844;8.830;2022-11-20T03:15:02;3.60;99.90
8248;DHT22;4164;49.844;8.830;2022-11-20T03:17:28;3.60;99.90
8248;DHT22;4164;49.844;8.830;2022-11-20T03:19:54;3.70;99.90
8248;DHT22;4164;49.844;8.830;2022-11-20T03:22:20;3.60;99.90
8248;DHT22;4164;49.844;8.830;2022-11-20T03:24:45;3.70;99.90
8248;DHT22;4164;49.844;8.830;2022-11-20T03:27:11;3.60;99.90
8248;DHT22;4164;49.844;8.830;2022-11-20T03:29:37;3.70;99.90
8248;DHT22;4164;49.844;8.830;2022-11-20T03:32:02;3.60;99.90
8248;DHT22;4164;49.844;8.830;2022-11-20T03:34:29;3.60;99.90
8248;DHT22;4164;49.844;8.830;2022-11-20T03:36:55;3.60;99.90
8248;DHT22;4164;49.844;8.830;2022-11-20T03:39:20;3.50;99.90
8248;DHT22;4164;49.844;8.830;2022-11-20T03:41:46;3.50;99.90
8248;DHT22;4164;49.844;8.830;2022-11-20T03:44:11;3.50;99.90
8248;DHT22;4164;49.844;8.830;2022-11-20T03:46:37;3.50;99.90
8248;DHT22;4164;49.844;8.830;2022-11-20T03:49:03;3.50;99.90
8248;DHT22;4164;49.844;8.830;2022-11-20T03:51:31;3.60;99.90
8248;DHT22;4164;49.844;8.830;2022-11-20T03:53:59;3.60;99.90
8248;DHT22;4164;49.844;8.830;2022-11-20T03:56:28;3.60;99.90
8248;DHT22;4164;49.844;8.830;2022-11-20T03:58:54;3.80;99.90
8248;DHT22;4164;49.844;8.830;2022-11-20T04:01:21;3.90;99.90
8248;DHT22;4164;49.844;8.830;2022-11-20T04:03:52;3.90;99.90
8248;DHT22;4164;49.844;8.830;2022-11-20T04:06:21;4.00;99.90
8248;DHT22;4164;49.844;8.830;2022-11-20T04:08:47;4.00;99.90
8248;DHT22;4164;49.844;8.830;2022-11-20T04:11:21;4.00;99.90
8248;DHT22;4164;49.844;8.830;2022-11-20T04:13:52;4.10;99.90
8248;DHT22;4164;49.844;8.830;2022-11-20T04:16:18;4.10;99.90
8248;DHT22;4164;49.844;8.830;2022-11-20T04:18:45;4.10;99.90
8248;DHT22;4164;49.844;8.830;2022-11-20T04:21:11;4.00;99.90
8248;DHT22;4164;49.844;8.830;2022-11-20T04:23:36;3.80;99.90
8248;DHT22;4164;49.844;8.830;2022-11-20T04:26:08;3.60;99.90
8248;DHT22;4164;49.844;8.830;2022-11-20T04:28:34;3.50;99.90
8248;DHT22;4164;49.844;8.830;2022-11-20T04:33:33;3.40;99.90
8248;DHT22;4164;49.844;8.830;2022-11-20T04:36:07;3.40;99.90
8248;DHT22;4164;49.844;8.830;2022-11-20T04:38:33;3.30;99.90
8248;DHT22;4164;49.844;8.830;2022-11-20T04:41:00;3.40;99.90
8248;DHT22;4164;49.844;8.830;2022-11-20T04:43:26;3.60;99.90
8248;DHT22;4164;49.844;8.830;2022-11-20T04:45:55;3.70;99.90
8248;DHT22;4164;49.844;8.830;2022-11-20T04:48:21;3.80;99.90
8248;DHT22;4164;49.844;8.830;2022-11-20T04:50:47;3.80;99.90
8248;DHT22;4164;49.844;8.830;2022-11-20T04:53:14;3.80;99.90
8248;DHT22;4164;49.844;8.830;2022-11-20T04:55:39;3.70;99.90
8248;DHT22;4164;49.844;8.830;2022-11-20T04:58:05;3.70;99.90
8248;DHT22;4164;49.844;8.830;2022-11-20T05:00:34;3.70;99.90
8248;DHT22;4164;49.844;8.830;2022-11-20T05:03:00;3.80;99.90
8248;DHT22;4164;49.844;8.830;2022-11-20T05:05:25;3.80;99.90
8248;DHT22;4164;49.844;8.830;2022-11-20T05:07:51;3.80;99.90
8248;DHT22;4164;49.844;8.830;2022-11-20T05:10:17;3.80;99.90
8248;DHT22;4164;49.844;8.830;2022-11-20T05:12:42;3.70;99.90
8248;DHT22;4164;49.844;8.830;2022-11-20T05:15:08;3.70;99.90
8248;DHT22;4164;49.844;8.830;2022-11-20T05:17:34;3.90;99.90
8248;DHT22;4164;49.844;8.830;2022-11-20T05:19:59;3.90;99.90
8248;DHT22;4164;49.844;8.830;2022-11-20T05:22:25;3.90;99.90
8248;DHT22;4164;49.844;8.830;2022-11-20T05:24:51;3.80;99.90
8248;DHT22;4164;49.844;8.830;2022-11-20T05:27:16;3.70;99.90
8248;DHT22;4164;49.844;8.830;2022-11-20T05:29:42;3.80;99.90
8248;DHT22;4164;49.844;8.830;2022-11-20T05:32:07;3.70;99.90
8248;DHT22;4164;49.844;8.830;2022-11-20T05:34:35;3.90;99.90
8248;DHT22;4164;49.844;8.830;2022-11-20T05:37:01;3.90;99.90
8248;DHT22;4164;49.844;8.830;2022-11-20T05:39:27;3.90;99.90
8248;DHT22;4164;49.844;8.830;2022-11-20T05:41:52;3.80;99.90
8248;DHT22;4164;49.844;8.830;2022-11-20T05:44:38;3.80;99.90
8248;DHT22;4164;49.844;8.830;2022-11-20T05:47:04;3.90;99.90
8248;DHT22;4164;49.844;8.830;2022-11-20T05:49:30;3.90;99.90
8248;DHT22;4164;49.844;8.830;2022-11-20T05:51:55;3.90;99.90
8248;DHT22;4164;49.844;8.830;2022-11-20T05:54:21;4.00;99.90
8248;DHT22;4164;49.844;8.830;2022-11-20T05:56:46;4.00;99.90
8248;DHT22;4164;49.844;8.830;2022-11-20T05:59:12;4.10;99.90
8248;DHT22;4164;49.844;8.830;2022-11-20T06:01:37;4.00;99.90
8248;DHT22;4164;49.844;8.830;2022-11-20T06:04:03;4.00;99.90
8248;DHT22;4164;49.844;8.830;2022-11-20T06:06:29;4.00;99.90
8248;DHT22;4164;49.844;8.830;2022-11-20T06:08:55;3.80;99.90
8248;DHT22;4164;49.844;8.830;2022-11-20T06:11:21;3.80;99.90
8248;DHT22;4164;49.844;8.830;2022-11-20T06:13:47;3.70;99.90
8248;DHT22;4164;49.844;8.830;2022-11-20T06:16:15;3.90;99.90
8248;DHT22;4164;49.844;8.830;2022-11-20T06:18:41;3.90;99.90
8248;DHT22;4164;49.844;8.830;2022-11-20T06:21:10;4.00;99.90
8248;DHT22;4164;49.844;8.830;2022-11-20T06:23:36;4.00;99.90
8248;DHT22;4164;49.844;8.830;2022-11-20T06:26:03;3.80;99.90
8248;DHT22;4164;49.844;8.830;2022-11-20T06:28:29;3.80;99.90
8248;DHT22;4164;49.844;8.830;2022-11-20T06:30:55;3.70;99.90
8248;DHT22;4164;49.844;8.830;2022-11-20T06:33:20;3.70;99.90
8248;DHT22;4164;49.844;8.830;2022-11-20T06:35:46;3.70;99.90
8248;DHT22;4164;49.844;8.830;2022-11-20T06:38:11;3.70;99.90
8248;DHT22;4164;49.844;8.830;2022-11-20T06:40:40;3.80;99.90
8248;DHT22;4164;49.844;8.830;2022-11-20T06:43:06;3.90;99.90
8248;DHT22;4164;49.844;8.830;2022-11-20T06:45:31;4.00;99.90
8248;DHT22;4164;49.844;8.830;2022-11-20T06:47:57;4.00;99.90
8248;DHT22;4164;49.844;8.830;2022-11-20T06:50:23;4.00;99.90
8248;DHT22;4164;49.844;8.830;2022-11-20T06:52:49;4.00;99.90
8248;DHT22;4164;49.844;8.830;2022-11-20T06:55:15;4.20;99.90
8248;DHT22;4164;49.844;8.830;2022-11-20T06:57:40;4.10;99.90
8248;DHT22;4164;49.844;8.830;2022-11-20T07:00:06;4.20;99.90
8248;DHT22;4164;49.844;8.830;2022-11-20T07:02:32;4.00;99.90
8248;DHT22;4164;49.844;8.830;2022-11-20T07:04:57;3.90;99.90
8248;DHT22;4164;49.844;8.830;2022-11-20T07:07:23;3.90;99.90
8248;DHT22;4164;49.844;8.830;2022-11-20T07:09:49;4.00;99.90
8248;DHT22;4164;49.844;8.830;2022-11-20T07:12:14;4.00;99.90
8248;DHT22;4164;49.844;8.830;2022-11-20T07:14:40;4.00;99.90
8248;DHT22;4164;49.844;8.830;2022-11-20T07:17:05;4.00;99.90
8248;DHT22;4164;49.844;8.830;2022-11-20T07:19:31;4.00;99.90
8248;DHT22;4164;49.844;8.830;2022-11-20T07:21:56;3.90;99.90
8248;DHT22;4164;49.844;8.830;2022-11-20T07:24:22;3.90;99.90
8248;DHT22;4164;49.844;8.830;2022-11-20T07:26:47;3.90;99.90
8248;DHT22;4164;49.844;8.830;2022-11-20T07:29:14;3.80;99.90
8248;DHT22;4164;49.844;8.830;2022-11-20T07:31:40;3.70;99.90
8248;DHT22;4164;49.844;8.830;2022-11-20T07:34:05;3.50;99.90
8248;DHT22;4164;49.844;8.830;2022-11-20T07:36:31;3.50;99.90
8248;DHT22;4164;49.844;8.830;2022-11-20T07:38:57;3.50;99.90
8248;DHT22;4164;49.844;8.830;2022-11-20T07:41:22;3.50;99.90
8248;DHT22;4164;49.844;8.830;2022-11-20T07:43:48;3.40;99.90
8248;DHT22;4164;49.844;8.830;2022-11-20T07:46:13;3.30;99.90
8248;DHT22;4164;49.844;8.830;2022-11-20T07:48:39;3.30;99.90
8248;DHT22;4164;49.844;8.830;2022-11-20T07:51:05;3.30;99.90
8248;DHT22;4164;49.844;8.830;2022-11-20T07:53:31;3.40;99.90
8248;DHT22;4164;49.844;8.830;2022-11-20T07:56:00;3.40;99.90
8248;DHT22;4164;49.844;8.830;2022-11-20T07:58:26;3.50;99.90
8248;DHT22;4164;49.844;8.830;2022-11-20T08:00:53;3.50;99.90
8248;DHT22;4164;49.844;8.830;2022-11-20T08:03:19;3.50;99.90
8248;DHT22;4164;49.844;8.830;2022-11-20T08:05:44;3.60;99.90
8248;DHT22;4164;49.844;8.830;2022-11-20T08:08:10;3.70;99.90
8248;DHT22;4164;49.844;8.830;2022-11-20T08:10:36;3.90;99.90
8248;DHT22;4164;49.844;8.830;2022-11-20T08:13:01;4.00;99.90
8248;DHT22;4164;49.844;8.830;2022-11-20T08:15:48;4.00;99.90
8248;DHT22;4164;49.844;8.830;2022-11-20T08:18:16;3.80;99.90
8248;DHT22;4164;49.844;8.830;2022-11-20T08:20:42;3.80;99.90
8248;DHT22;4164;49.844;8.830;2022-11-20T08:23:08;3.70;99.90
8248;DHT22;4164;49.844;8.830;2022-11-20T08:25:35;3.70;99.90
8248;DHT22;4164;49.844;8.830;2022-11-20T08:28:06;3.60;99.90
8248;DHT22;4164;49.844;8.830;2022-11-20T08:30:32;3.70;99.90
8248;DHT22;4164;49.844;8.830;2022-11-20T08:33:05;3.90;99.90
8248;DHT22;4164;49.844;8.830;2022-11-20T08:35:35;3.80;99.90
8248;DHT22;4164;49.844;8.830;2022-11-20T08:38:05;3.90;99.90
8248;DHT22;4164;49.844;8.830;2022-11-20T08:40:31;3.80;99.90
8248;DHT22;4164;49.844;8.830;2022-11-20T08:42:57;3.90;99.90
8248;DHT22;4164;49.844;8.830;2022-11-20T08:45:23;3.90;99.90
8248;DHT22;4164;49.844;8.830;2022-11-20T08:47:49;3.90;99.90
8248;DHT22;4164;49.844;8.830;2022-11-20T08:50:15;3.80;99.90
8248;DHT22;4164;49.844;8.830;2022-11-20T08:52:42;4.00;99.90
8248;DHT22;4164;49.844;8.830;2022-11-20T08:55:08;4.20;99.90
8248;DHT22;4164;49.844;8.830;2022-11-20T08:57:35;4.40;99.90
8248;DHT22;4164;49.844;8.830;2022-11-20T09:00:02;4.40;99.90
8248;DHT22;4164;49.844;8.830;2022-11-20T09:02:28;4.60;99.90
8248;DHT22;4164;49.844;8.830;2022-11-20T09:04:53;4.90;99.90
8248;DHT22;4164;49.844;8.830;2022-11-20T09:07:19;5.20;99.90
8248;DHT22;4164;49.844;8.830;2022-11-20T09:09:45;5.20;99.90
8248;DHT22;4164;49.844;8.830;2022-11-20T09:12:10;5.10;99.90
8248;DHT22;4164;49.844;8.830;2022-11-20T09:14:36;5.40;99.90
8248;DHT22;4164;49.844;8.830;2022-11-20T09:17:02;5.40;99.90
8248;DHT22;4164;49.844;8.830;2022-11-20T09:19:27;5.30;99.90
8248;DHT22;4164;49.844;8.830;2022-11-20T09:21:53;5.40;99.90
8248;DHT22;4164;49.844;8.830;2022-11-20T09:24:19;5.10;99.90
8248;DHT22;4164;49.844;8.830;2022-11-20T09:26:46;4.90;99.90
8248;DHT22;4164;49.844;8.830;2022-11-20T09:29:11;5.00;99.90
8248;DHT22;4164;49.844;8.830;2022-11-20T09:31:37;5.20;99.90
8248;DHT22;4164;49.844;8.830;2022-11-20T09:34:03;5.30;99.90
8248;DHT22;4164;49.844;8.830;2022-11-20T09:36:28;5.40;99.90
8248;DHT22;4164;49.844;8.830;2022-11-20T09:38:54;5.40;99.90
8248;DHT22;4164;49.844;8.830;2022-11-20T09:41:51;5.30;99.90
8248;DHT22;4164;49.844;8.830;2022-11-20T09:52:59;5.50;99.90
8248;DHT22;4164;49.844;8.830;2022-11-20T09:55:29;5.40;99.90
8248;DHT22;4164;49.844;8.830;2022-11-20T09:57:56;5.40;99.90
8248;DHT22;4164;49.844;8.830;2022-11-20T10:00:23;5.40;99.90
8248;DHT22;4164;49.844;8.830;2022-11-20T10:02:55;5.40;99.90
8248;DHT22;4164;49.844;8.830;2022-11-20T10:05:42;5.40;99.90
8248;DHT22;4164;49.844;8.830;2022-11-20T10:22:32;5.70;99.90
8248;DHT22;4164;49.844;8.830;2022-11-20T10:30:14;5.80;99.90
8248;DHT22;4164;49.844;8.830;2022-11-20T10:32:47;5.80;99.90
8248;DHT22;4164;49.844;8.830;2022-11-20T10:35:32;5.80;99.90
8248;DHT22;4164;49.844;8.830;2022-11-20T10:38:03;5.80;99.90
8248;DHT22;4164;49.844;8.830;2022-11-20T10:40:44;5.70;99.90
8248;DHT22;4164;49.844;8.830;2022-11-20T10:43:33;5.70;99.90
8248;DHT22;4164;49.844;8.830;2022-11-20T10:46:02;5.80;99.90
8248;DHT22;4164;49.844;8.830;2022-11-20T10:48:31;5.80;99.90
8248;DHT22;4164;49.844;8.830;2022-11-20T10:53:42;5.90;99.90
8248;DHT22;4164;49.844;8.830;2022-11-20T10:56:30;5.80;99.90
8248;DHT22;4164;49.844;8.830;2022-11-20T11:01:46;5.60;99.90
8248;DHT22;4164;49.844;8.830;2022-11-20T11:06:56;5.40;99.90
8248;DHT22;4164;49.844;8.830;2022-11-20T11:09:32;5.30;99.90
8248;DHT22;4164;49.844;8.830;2022-11-20T11:11:58;5.30;99.90
8248;DHT22;4164;49.844;8.830;2022-11-20T11:14:23;5.30;99.90
8248;DHT22;4164;49.844;8.830;2022-11-20T11:16:57;5.30;99.90
8248;DHT22;4164;49.844;8.830;2022-11-20T11:19:23;5.30;99.90
8248;DHT22;4164;49.844;8.830;2022-11-20T11:21:54;5.30;99.90
8248;DHT22;4164;49.844;8.830;2022-11-20T11:24:28;5.30;99.90
8248;DHT22;4164;49.844;8.830;2022-11-20T11:27:01;5.30;99.90
8248;DHT22;4164;49.844;8.830;2022-11-20T11:29:32;5.30;99.90
8248;DHT22;4164;49.844;8.830;2022-11-20T11:32:13;5.40;99.90
8248;DHT22;4164;49.844;8.830;2022-11-20T11:34:39;5.50;99.90
8248;DHT22;4164;49.844;8.830;2022-11-20T11:37:19;5.70;99.90
8248;DHT22;4164;49.844;8.830;2022-11-20T11:39:47;5.80;99.90
8248;DHT22;4164;49.844;8.830;2022-11-20T11:42:16;5.90;99.90
8248;DHT22;4164;49.844;8.830;2022-11-20T11:44:47;6.00;99.90
8248;DHT22;4164;49.844;8.830;2022-11-20T11:50:15;6.00;99.90
8248;DHT22;4164;49.844;8.830;2022-11-20T11:53:12;6.00;99.90
8248;DHT22;4164;49.844;8.830;2022-11-20T12:01:17;5.90;99.90
8248;DHT22;4164;49.844;8.830;2022-11-20T12:04:04;6.10;99.90
8248;DHT22;4164;49.844;8.830;2022-11-20T12:06:32;6.10;99.90
8248;DHT22;4164;49.844;8.830;2022-11-20T12:09:08;6.10;99.90
8248;DHT22;4164;49.844;8.830;2022-11-20T12:11:46;6.10;99.90
8248;DHT22;4164;49.844;8.830;2022-11-20T12:14:24;5.90;99.90
8248;DHT22;4164;49.844;8.830;2022-11-20T12:16:53;6.00;99.90
8248;DHT22;4164;49.844;8.830;2022-11-20T12:19:21;6.10;99.90
8248;DHT22;4164;49.844;8.830;2022-11-20T12:22:17;6.40;99.90
8248;DHT22;4164;49.844;8.830;2022-11-20T12:30:16;7.00;99.90
8248;DHT22;4164;49.844;8.830;2022-11-20T12:41:25;6.80;99.90
8248;DHT22;4164;49.844;8.830;2022-11-20T12:44:48;6.90;99.90
8248;DHT22;4164;49.844;8.830;2022-11-20T13:07:45;6.70;99.90
8248;DHT22;4164;49.844;8.830;2022-11-20T13:10:45;6.60;99.90
8248;DHT22;4164;49.844;8.830;2022-11-20T13:16:57;6.80;99.90
8248;DHT22;4164;49.844;8.830;2022-11-20T13:19:04;7.00;99.90
8248;DHT22;4164;49.844;8.830;2022-11-20T13:21:41;7.00;99.90
8248;DHT22;4164;49.844;8.830;2022-11-20T13:24:29;7.20;99.90
8248;DHT22;4164;49.844;8.830;2022-11-20T13:29:36;7.40;99.90
8248;DHT22;4164;49.844;8.830;2022-11-20T13:32:03;7.30;99.90
8248;DHT22;4164;49.844;8.830;2022-11-20T13:34:30;7.30;99.90
8248;DHT22;4164;49.844;8.830;2022-11-20T13:36:57;7.30;99.90
8248;DHT22;4164;49.844;8.830;2022-11-20T13:39:49;7.40;99.90
8248;DHT22;4164;49.844;8.830;2022-11-20T13:44:53;7.30;99.90
8248;DHT22;4164;49.844;8.830;2022-11-20T13:47:29;7.40;99.90
8248;DHT22;4164;49.844;8.830;2022-11-20T13:49:58;7.50;99.90
8248;DHT22;4164;49.844;8.830;2022-11-20T13:53:02;7.40;99.90
8248;DHT22;4164;49.844;8.830;2022-11-20T13:55:50;7.30;99.90
8248;DHT22;4164;49.844;8.830;2022-11-20T13:58:47;7.40;99.90
8248;DHT22;4164;49.844;8.830;2022-11-20T14:01:23;7.30;99.90
8248;DHT22;4164;49.844;8.830;2022-11-20T14:03:50;7.20;99.90
8248;DHT22;4164;49.844;8.830;2022-11-20T14:06:31;7.20;99.90
8248;DHT22;4164;49.844;8.830;2022-11-20T14:08:58;7.10;99.90
8248;DHT22;4164;49.844;8.830;2022-11-20T14:11:29;7.50;99.90
8248;DHT22;4164;49.844;8.830;2022-11-20T14:13:58;7.30;99.90
8248;DHT22;4164;49.844;8.830;2022-11-20T14:16:25;7.40;99.90
8248;DHT22;4164;49.844;8.830;2022-11-20T14:18:52;7.40;99.90
8248;DHT22;4164;49.844;8.830;2022-11-20T14:21:29;7.30;99.90
8248;DHT22;4164;49.844;8.830;2022-11-20T14:24:06;7.20;99.90
8248;DHT22;4164;49.844;8.830;2022-11-20T14:26:32;7.20;99.90
8248;DHT22;4164;49.844;8.830;2022-11-20T14:28:58;7.00;99.90
8248;DHT22;4164;49.844;8.830;2022-11-20T14:31:26;7.00;99.90
8248;DHT22;4164;49.844;8.830;2022-11-20T14:33:53;7.00;99.90
8248;DHT22;4164;49.844;8.830;2022-11-20T14:36:23;6.90;99.90
8248;DHT22;4164;49.844;8.830;2022-11-20T14:38:51;6.90;99.90
8248;DHT22;4164;49.844;8.830;2022-11-20T14:41:24;7.10;99.90
8248;DHT22;4164;49.844;8.830;2022-11-20T14:43:57;7.10;99.90
8248;DHT22;4164;49.844;8.830;2022-11-20T14:46:23;6.90;99.90
8248;DHT22;4164;49.844;8.830;2022-11-20T14:48:52;6.80;99.90
8248;DHT22;4164;49.844;8.830;2022-11-20T14:51:39;6.70;99.90
8248;DHT22;4164;49.844;8.830;2022-11-20T14:54:14;6.60;99.90
8248;DHT22;4164;49.844;8.830;2022-11-20T14:56:40;6.70;99.90
8248;DHT22;4164;49.844;8.830;2022-11-20T14:59:08;6.60;99.90
8248;DHT22;4164;49.844;8.830;2022-11-20T15:01:37;6.60;99.90
8248;DHT22;4164;49.844;8.830;2022-11-20T15:04:09;6.70;99.90
8248;DHT22;4164;49.844;8.830;2022-11-20T15:06:35;6.60;99.90
8248;DHT22;4164;49.844;8.830;2022-11-20T15:09:04;6.50;99.90
8248;DHT22;4164;49.844;8.830;2022-11-20T15:11:33;6.50;99.90
8248;DHT22;4164;49.844;8.830;2022-11-20T15:14:03;6.30;99.90
8248;DHT22;4164;49.844;8.830;2022-11-20T15:16:29;6.20;99.90
8248;DHT22;4164;49.844;8.830;2022-11-20T15:18:56;6.10;99.90
8248;DHT22;4164;49.844;8.830;2022-11-20T15:21:21;6.10;99.90
8248;DHT22;4164;49.844;8.830;2022-11-20T15:23:47;6.10;99.90
8248;DHT22;4164;49.844;8.830;2022-11-20T15:26:18;6.30;99.90
8248;DHT22;4164;49.844;8.830;2022-11-20T15:28:46;6.40;99.90
8248;DHT22;4164;49.844;8.830;2022-11-20T15:31:14;6.40;99.90
8248;DHT22;4164;49.844;8.830;2022-11-20T15:33:40;6.40;99.90
8248;DHT22;4164;49.844;8.830;2022-11-20T15:36:06;6.30;99.90
8248;DHT22;4164;49.844;8.830;2022-11-20T15:38:31;6.70;99.90
8248;DHT22;4164;49.844;8.830;2022-11-20T15:40:57;6.50;99.90
8248;DHT22;4164;49.844;8.830;2022-11-20T15:43:23;6.40;99.90
8248;DHT22;4164;49.844;8.830;2022-11-20T15:45:55;6.30;99.90
8248;DHT22;4164;49.844;8.830;2022-11-20T15:48:26;6.30;99.90
8248;DHT22;4164;49.844;8.830;2022-11-20T15:50:53;6.40;99.90
8248;DHT22;4164;49.844;8.830;2022-11-20T15:53:20;6.40;99.90
8248;DHT22;4164;49.844;8.830;2022-11-20T15:55:45;6.40;99.90
8248;DHT22;4164;49.844;8.830;2022-11-20T15:58:11;6.70;99.90
8248;DHT22;4164;49.844;8.830;2022-11-20T16:00:36;6.30;99.90
8248;DHT22;4164;49.844;8.830;2022-11-20T16:03:02;6.40;99.90
8248;DHT22;4164;49.844;8.830;2022-11-20T16:05:28;6.40;99.90
8248;DHT22;4164;49.844;8.830;2022-11-20T16:07:55;6.50;99.90
8248;DHT22;4164;49.844;8.830;2022-11-20T16:10:21;6.50;99.90
8248;DHT22;4164;49.844;8.830;2022-11-20T16:12:46;6.60;99.90
8248;DHT22;4164;49.844;8.830;2022-11-20T16:15:31;6.50;99.90
8248;DHT22;4164;49.844;8.830;2022-11-20T16:18:13;6.60;99.90
8248;DHT22;4164;49.844;8.830;2022-11-20T16:20:39;6.50;99.90
8248;DHT22;4164;49.844;8.830;2022-11-20T16:23:06;6.50;99.90
8248;DHT22;4164;49.844;8.830;2022-11-20T16:25:32;6.70;99.90
8248;DHT22;4164;49.844;8.830;2022-11-20T16:27:58;6.70;99.90
8248;DHT22;4164;49.844;8.830;2022-11-20T16:30:24;6.80;99.90
8248;DHT22;4164;49.844;8.830;2022-11-20T16:32:49;6.80;99.90
8248;DHT22;4164;49.844;8.830;2022-11-20T16:35:15;6.80;99.90
8248;DHT22;4164;49.844;8.830;2022-11-20T16:37:40;6.70;99.90
8248;DHT22;4164;49.844;8.830;2022-11-20T16:40:07;6.70;99.90
8248;DHT22;4164;49.844;8.830;2022-11-20T16:42:34;6.70;99.90
8248;DHT22;4164;49.844;8.830;2022-11-20T16:45:00;6.80;99.90
8248;DHT22;4164;49.844;8.830;2022-11-20T16:47:25;6.80;99.90
8248;DHT22;4164;49.844;8.830;2022-11-20T16:49:51;6.90;99.90
8248;DHT22;4164;49.844;8.830;2022-11-20T16:52:16;7.00;99.90
8248;DHT22;4164;49.844;8.830;2022-11-20T16:54:42;7.00;99.90
8248;DHT22;4164;49.844;8.830;2022-11-20T16:57:08;6.90;99.90
8248;DHT22;4164;49.844;8.830;2022-11-20T16:59:33;6.90;99.90
8248;DHT22;4164;49.844;8.830;2022-11-20T17:01:59;6.90;99.90
8248;DHT22;4164;49.844;8.830;2022-11-20T17:04:24;6.90;99.90
8248;DHT22;4164;49.844;8.830;2022-11-20T17:06:50;6.90;99.90
8248;DHT22;4164;49.844;8.830;2022-11-20T17:09:15;7.00;99.90
8248;DHT22;4164;49.844;8.830;2022-11-20T17:11:41;6.90;99.90
8248;DHT22;4164;49.844;8.830;2022-11-20T17:14:07;7.00;99.90
8248;DHT22;4164;49.844;8.830;2022-11-20T17:16:34;7.00;99.90
8248;DHT22;4164;49.844;8.830;2022-11-20T17:19:01;7.00;99.90
8248;DHT22;4164;49.844;8.830;2022-11-20T17:21:27;7.00;99.90
8248;DHT22;4164;49.844;8.830;2022-11-20T17:23:54;6.90;99.90
8248;DHT22;4164;49.844;8.830;2022-11-20T17:26:23;6.90;99.90
8248;DHT22;4164;49.844;8.830;2022-11-20T17:29:00;7.50;99.90
8248;DHT22;4164;49.844;8.830;2022-11-20T17:31:27;6.80;99.90
8248;DHT22;4164;49.844;8.830;2022-11-20T17:33:52;6.70;99.90
8248;DHT22;4164;49.844;8.830;2022-11-20T17:36:19;6.70;99.90
8248;DHT22;4164;49.844;8.830;2022-11-20T17:38:45;6.80;99.90
8248;DHT22;4164;49.844;8.830;2022-11-20T17:41:14;6.80;99.90
8248;DHT22;4164;49.844;8.830;2022-11-20T17:43:40;6.80;99.90
8248;DHT22;4164;49.844;8.830;2022-11-20T17:46:08;6.80;99.90
8248;DHT22;4164;49.844;8.830;2022-11-20T17:48:35;6.80;99.90
8248;DHT22;4164;49.844;8.830;2022-11-20T17:51:05;6.80;99.90
8248;DHT22;4164;49.844;8.830;2022-11-20T17:53:35;6.80;99.90
8248;DHT22;4164;49.844;8.830;2022-11-20T17:56:02;6.70;99.90
8248;DHT22;4164;49.844;8.830;2022-11-20T17:58:46;6.70;99.90
8248;DHT22;4164;49.844;8.830;2022-11-20T18:01:12;6.70;99.90